createdAt,value
2022-12-13T00:03:56.134Z,67.00
2022-12-13T00:12:05.448Z,66.90
2022-12-13T00:20:11.688Z,69.60
2022-12-13T00:28:20.375Z,69.50
2022-12-13T00:36:25.685Z,69.70
2022-12-13T00:44:34.133Z,70.30
2022-12-13T00:52:39.503Z,69.90
2022-12-13T01:00:48.312Z,70.30
2022-12-13T01:08:53.963Z,70.40
2022-12-13T01:17:01.970Z,69.70
2022-12-13T01:25:07.957Z,71.00
2022-12-13T01:33:15.986Z,71.70
2022-12-13T01:41:27.152Z,72.30
2022-12-13T01:49:35.907Z,72.10
2022-12-13T01:57:45.791Z,73.40
2022-12-13T02:06:01.860Z,73.40
2022-12-13T02:14:07.446Z,73.00
2022-12-13T02:22:23.697Z,72.70
2022-12-13T02:30:38.777Z,73.70
2022-12-13T02:38:52.729Z,72.90
2022-12-13T02:47:05.703Z,71.40
2022-12-13T02:55:21.125Z,71.20
2022-12-13T03:03:40.437Z,72.00
2022-12-13T03:12:14.166Z,73.70
2022-12-13T03:20:28.096Z,73.90
2022-12-13T03:28:33.408Z,73.70
2022-12-13T03:36:41.322Z,71.80
2022-12-13T03:44:46.719Z,73.00
2022-12-13T03:52:54.647Z,71.80
2022-12-13T04:00:59.924Z,73.80
2022-12-13T04:09:09.007Z,75.20
2022-12-13T04:17:14.459Z,75.60
2022-12-13T04:25:22.997Z,76.00
2022-12-13T04:33:28.748Z,76.50
2022-12-13T04:41:39.360Z,77.10
2022-12-13T04:49:44.668Z,76.30
2022-12-13T04:57:52.452Z,76.80
2022-12-13T05:05:57.723Z,76.60
2022-12-13T05:14:05.716Z,75.70
2022-12-13T05:22:19.766Z,76.80
2022-12-13T05:30:28.458Z,77.60
2022-12-13T05:38:34.140Z,77.90
2022-12-13T05:46:42.005Z,77.30
2022-12-13T05:54:47.333Z,76.90
2022-12-13T06:02:55.662Z,76.20
2022-12-13T06:11:11.166Z,75.20
2022-12-13T06:19:20.198Z,75.20
2022-12-13T06:27:25.509Z,75.70
2022-12-13T06:35:38.047Z,74.30
2022-12-13T06:43:48.190Z,74.10
2022-12-13T06:51:57.176Z,73.80
2022-12-13T07:00:06.225Z,73.80
2022-12-13T07:08:14.403Z,74.80
2022-12-13T07:16:30.696Z,74.00
2022-12-13T07:24:38.845Z,73.70
2022-12-13T07:32:44.137Z,73.00
2022-12-13T07:40:52.012Z,72.80
2022-12-13T07:49:01.510Z,71.30
2022-12-13T07:57:11.305Z,70.90
2022-12-13T08:05:26.704Z,63.00
2022-12-13T08:13:35.302Z,55.10
2022-12-13T08:22:02.014Z,51.60
2022-12-13T08:30:11.456Z,48.40
2022-12-13T08:38:22.481Z,44.80
2022-12-13T08:46:31.895Z,44.00
2022-12-13T08:54:38.422Z,42.00
2022-12-13T09:02:46.680Z,40.30
2022-12-13T09:11:00.072Z,38.50
2022-12-13T09:19:25.523Z,37.60
2022-12-13T09:27:39.987Z,35.70
2022-12-13T09:35:48.328Z,34.50
2022-12-13T09:44:01.009Z,33.20
2022-12-13T09:52:21.374Z,33.20
2022-12-13T10:00:30.050Z,32.00
2022-12-13T10:08:43.464Z,31.20
2022-12-13T10:16:53.022Z,31.30
2022-12-13T10:25:03.918Z,37.30
2022-12-13T10:33:10.664Z,42.90
2022-12-13T10:41:34.953Z,45.60
2022-12-13T10:49:50.551Z,49.70
2022-12-13T10:58:10.225Z,52.10
2022-12-13T11:06:19.673Z,53.30
2022-12-13T11:14:31.869Z,54.10
2022-12-13T11:22:40.398Z,54.40
2022-12-13T11:31:01.740Z,56.40
2022-12-13T11:39:19.590Z,56.60
2022-12-13T11:47:30.762Z,57.40
2022-12-13T11:55:41.967Z,57.70
2022-12-13T12:03:54.390Z,57.80
2022-12-13T12:12:05.782Z,58.20
2022-12-13T12:20:23.932Z,58.50
2022-12-13T12:28:44.326Z,58.40
2022-12-13T12:37:03.428Z,58.60
2022-12-13T12:45:55.349Z,59.10
2022-12-13T12:54:02.234Z,59.80
2022-12-13T13:02:18.991Z,60.40
2022-12-13T13:10:27.729Z,61.30
2022-12-13T13:18:49.399Z,61.50
2022-12-13T13:26:59.339Z,62.60
2022-12-13T13:35:37.093Z,62.60
2022-12-13T13:43:45.426Z,63.40
2022-12-13T13:52:26.799Z,63.10
2022-12-13T14:00:54.395Z,63.60
2022-12-13T14:09:29.398Z,64.30
2022-12-13T14:18:08.498Z,64.90
2022-12-13T14:26:24.992Z,65.30
2022-12-13T14:34:35.765Z,65.40
2022-12-13T14:42:41.051Z,66.40
2022-12-13T14:50:52.293Z,65.90
2022-12-13T14:58:59.462Z,66.80
2022-12-13T15:07:11.532Z,67.80
2022-12-13T15:15:30.156Z,67.70
2022-12-13T15:23:48.625Z,68.00
2022-12-13T15:32:09.197Z,68.40
2022-12-13T15:40:20.309Z,68.50
2022-12-13T15:48:32.186Z,68.40
2022-12-13T15:57:01.171Z,69.90
2022-12-13T16:05:13.187Z,69.40
2022-12-13T16:13:31.847Z,69.70
2022-12-13T16:21:41.234Z,70.10
2022-12-13T16:29:52.794Z,70.20
2022-12-13T16:37:59.428Z,70.10
2022-12-13T16:47:11.503Z,70.70
2022-12-13T16:54:36.173Z,71.00
2022-12-13T17:02:44.996Z,71.10
2022-12-13T17:10:58.113Z,71.10
2022-12-13T17:19:06.500Z,72.10
2022-12-13T17:27:11.921Z,72.70
2022-12-13T17:35:20.357Z,72.80
2022-12-13T17:43:34.912Z,73.70
2022-12-13T17:51:43.748Z,74.20
2022-12-13T17:59:57.486Z,74.00
2022-12-13T18:08:06.044Z,75.10
2022-12-13T18:16:13.606Z,74.80
2022-12-13T18:24:21.620Z,75.30
2022-12-13T18:32:26.977Z,75.20
2022-12-13T18:40:35.024Z,76.20
2022-12-13T18:48:41.496Z,76.00
2022-12-13T18:56:50.139Z,75.60
2022-12-13T19:04:58.540Z,76.30
2022-12-13T19:13:07.115Z,76.50
2022-12-13T19:21:23.553Z,76.50
2022-12-13T19:29:32.573Z,76.20
2022-12-13T19:37:39.680Z,76.70
2022-12-13T19:45:50.961Z,77.80
2022-12-13T19:53:56.529Z,77.70
2022-12-13T20:02:12.241Z,77.60
2022-12-13T20:10:18.495Z,77.30
2022-12-13T20:18:27.533Z,77.80
2022-12-13T20:26:34.590Z,78.00
2022-12-13T20:34:42.869Z,78.60
2022-12-13T20:42:48.437Z,78.20
2022-12-13T20:51:05.166Z,76.90
2022-12-13T20:59:12.026Z,79.50
2022-12-13T21:07:40.205Z,79.40
2022-12-13T21:15:46.759Z,79.60
2022-12-13T21:23:55.055Z,79.30
2022-12-13T21:32:00.413Z,80.00
2022-12-13T21:40:11.554Z,79.50
2022-12-13T21:48:16.908Z,81.40
2022-12-13T21:56:38.706Z,80.70
2022-12-13T22:04:48.674Z,80.40
2022-12-13T22:12:58.829Z,80.30
2022-12-13T22:21:04.160Z,80.40
2022-12-13T22:29:15.376Z,79.80
2022-12-13T22:37:20.731Z,79.30
2022-12-13T22:45:28.975Z,79.00
2022-12-13T22:53:34.360Z,79.30
2022-12-13T23:01:43.427Z,79.00
2022-12-13T23:09:52.850Z,78.70
2022-12-13T23:18:00.797Z,78.80
2022-12-13T23:26:11.957Z,78.90
2022-12-13T23:34:20.182Z,79.50
2022-12-13T23:42:25.518Z,80.10
2022-12-13T23:50:33.491Z,78.60
2022-12-13T23:58:40.869Z,79.50
